Etusivu
METAR-TAF:

METAR-TAF

Lentoasemat :

Jizan, Saudi-Arabia

Leveyspiiri: 16-54N, Pituuspiiri: 042-35E, korkeus merenpinnasta: 6 m

Tämänhetkinen sää

Tämä raportti tehtiin 47 minuuttia sitten, kello 09.00 UTC
Tuuli 8 kn etelästä/lounaasta
Lämpötila 30°C
Kosteus 66%
Ilmanpaine 1014 hPa
Näkyvyys: 9000 m
Hajanaisia pilviä 3000 ft:n korkeudessa

METAR: OEGN 250900Z 20008KT 9000 SCT030 30/23 Q1014 NOSIG

Aika: 12:47 (09:47 UTC)

Sääennuste

Tämä raportti tehtiin 4 tuntia ja 47 minuuttia sitten, kello 05.00 UTC
Ennuste voimassa 25. päivästä klo 06 UTC - 25. päivään klo 15 UTC
Tuuli 8 kn lännestä/lounaasta
Näkyvyys: 7000 m
Muutamia pilviä 3000 ft:n korkeudessa
Hajanaisia pilviä 10000 ft:n korkeudessa
Ajoittain
25. päivästä klo 06 UTC - 25. päivään klo 12 UTC
Muutamia pilviä 3500 ft:n korkeudessa, Cumulonimbus.
ukkosmyrsky, sadetta

TAF: OEGN 250500Z 2506/2515 24008KT 7000 FEW030 SCT100 TEMPO 2506/2512 TSRA FEW035CB

Säähavainnot ja -ennusteet yli 4000 lentoasemalta (METAR- ja TAF-raportit).

Käytössä olevat sääasemat on merkitty karttaan keltaisilla ja punaisilla pisteillä.

Aseta hiiri pisteen päälle nähdäksesi sääaseman nimen.

Klikkaa sitten nähdäksesi säähavainnot ja -ennusteet.

Kartan vaihtaminen: klikkaa mustalla rastilla varustettuja vihreitä pisteitä, niin voit zoomata sisään; viivalla varustettua vihreää pistettä, niin voit zoomata ulos tai vihreitä nuolia, niin pääset viereisille kartoille.


METAR-TAF: